sensor_id;sensor_type;location;lat;lon;timestamp;temperature;humidity
23703;DHT22;12030;50.376;8.762;2022-11-24T00:01:49;6.20;99.90
23703;DHT22;12030;50.376;8.762;2022-11-24T00:04:14;6.20;99.90
23703;DHT22;12030;50.376;8.762;2022-11-24T00:06:40;6.20;99.90
23703;DHT22;12030;50.376;8.762;2022-11-24T00:09:05;6.30;99.90
23703;DHT22;12030;50.376;8.762;2022-11-24T00:11:33;6.30;99.90
23703;DHT22;12030;50.376;8.762;2022-11-24T00:14:00;6.20;99.90
23703;DHT22;12030;50.376;8.762;2022-11-24T00:16:28;6.30;99.90
23703;DHT22;12030;50.376;8.762;2022-11-24T00:18:56;6.30;99.90
23703;DHT22;12030;50.376;8.762;2022-11-24T00:21:23;6.30;99.90
23703;DHT22;12030;50.376;8.762;2022-11-24T00:23:49;6.30;99.90
23703;DHT22;12030;50.376;8.762;2022-11-24T00:26:18;6.30;99.90
23703;DHT22;12030;50.376;8.762;2022-11-24T00:28:45;6.30;99.90
23703;DHT22;12030;50.376;8.762;2022-11-24T00:31:17;6.40;99.90
23703;DHT22;12030;50.376;8.762;2022-11-24T00:33:44;6.40;99.90
23703;DHT22;12030;50.376;8.762;2022-11-24T00:36:10;6.40;99.90
23703;DHT22;12030;50.376;8.762;2022-11-24T00:38:36;6.50;99.90
23703;DHT22;12030;50.376;8.762;2022-11-24T00:41:01;6.50;99.90
23703;DHT22;12030;50.376;8.762;2022-11-24T00:43:27;6.50;99.90
23703;DHT22;12030;50.376;8.762;2022-11-24T00:45:52;6.60;99.90
23703;DHT22;12030;50.376;8.762;2022-11-24T00:48:18;6.60;99.90
23703;DHT22;12030;50.376;8.762;2022-11-24T00:50:43;6.70;99.90
23703;DHT22;12030;50.376;8.762;2022-11-24T00:53:09;6.70;99.90
23703;DHT22;12030;50.376;8.762;2022-11-24T00:55:34;6.80;99.90
23703;DHT22;12030;50.376;8.762;2022-11-24T00:58:00;6.80;99.90
23703;DHT22;12030;50.376;8.762;2022-11-24T01:00:25;6.80;99.90
23703;DHT22;12030;50.376;8.762;2022-11-24T01:02:51;6.90;99.90
23703;DHT22;12030;50.376;8.762;2022-11-24T01:05:17;6.90;99.90
23703;DHT22;12030;50.376;8.762;2022-11-24T01:07:43;6.90;99.90
23703;DHT22;12030;50.376;8.762;2022-11-24T01:10:08;6.90;99.90
23703;DHT22;12030;50.376;8.762;2022-11-24T01:12:34;6.90;99.90
23703;DHT22;12030;50.376;8.762;2022-11-24T01:15:00;6.90;99.90
23703;DHT22;12030;50.376;8.762;2022-11-24T01:17:25;6.80;99.90
23703;DHT22;12030;50.376;8.762;2022-11-24T01:19:51;6.80;99.90
23703;DHT22;12030;50.376;8.762;2022-11-24T01:22:17;6.70;99.90
23703;DHT22;12030;50.376;8.762;2022-11-24T01:24:42;6.60;99.90
23703;DHT22;12030;50.376;8.762;2022-11-24T01:27:08;6.60;99.90
23703;DHT22;12030;50.376;8.762;2022-11-24T01:29:33;6.60;99.90
23703;DHT22;12030;50.376;8.762;2022-11-24T01:31:59;6.60;99.90
23703;DHT22;12030;50.376;8.762;2022-11-24T01:34:24;6.50;99.90
23703;DHT22;12030;50.376;8.762;2022-11-24T01:36:50;6.50;99.90
23703;DHT22;12030;50.376;8.762;2022-11-24T01:39:15;6.40;99.90
23703;DHT22;12030;50.376;8.762;2022-11-24T01:41:41;6.50;99.90
23703;DHT22;12030;50.376;8.762;2022-11-24T01:44:27;6.40;99.90
23703;DHT22;12030;50.376;8.762;2022-11-24T01:47:01;6.40;99.90
23703;DHT22;12030;50.376;8.762;2022-11-24T01:49:44;6.40;99.90
23703;DHT22;12030;50.376;8.762;2022-11-24T01:52:59;6.40;99.90
23703;DHT22;12030;50.376;8.762;2022-11-24T01:55:06;6.40;99.90
23703;DHT22;12030;50.376;8.762;2022-11-24T01:57:36;6.40;99.90
23703;DHT22;12030;50.376;8.762;2022-11-24T02:00:07;6.40;99.90
23703;DHT22;12030;50.376;8.762;2022-11-24T02:02:34;6.40;99.90
23703;DHT22;12030;50.376;8.762;2022-11-24T02:05:05;6.40;99.90
23703;DHT22;12030;50.376;8.762;2022-11-24T02:07:32;6.40;99.90
23703;DHT22;12030;50.376;8.762;2022-11-24T02:10:13;6.40;99.90
23703;DHT22;12030;50.376;8.762;2022-11-24T02:12:41;6.40;99.90
23703;DHT22;12030;50.376;8.762;2022-11-24T02:15:08;6.50;99.90
23703;DHT22;12030;50.376;8.762;2022-11-24T02:17:34;6.50;99.90
23703;DHT22;12030;50.376;8.762;2022-11-24T02:20:03;6.60;99.90
23703;DHT22;12030;50.376;8.762;2022-11-24T02:22:53;6.60;99.90
23703;DHT22;12030;50.376;8.762;2022-11-24T02:25:37;6.70;99.90
23703;DHT22;12030;50.376;8.762;2022-11-24T02:28:07;6.70;99.90
23703;DHT22;12030;50.376;8.762;2022-11-24T02:30:34;6.80;99.90
23703;DHT22;12030;50.376;8.762;2022-11-24T02:33:01;6.80;99.90
23703;DHT22;12030;50.376;8.762;2022-11-24T02:35:27;6.90;99.90
23703;DHT22;12030;50.376;8.762;2022-11-24T02:37:52;6.90;99.90
23703;DHT22;12030;50.376;8.762;2022-11-24T02:40:22;6.90;99.90
23703;DHT22;12030;50.376;8.762;2022-11-24T02:42:55;6.90;99.90
23703;DHT22;12030;50.376;8.762;2022-11-24T02:45:22;6.90;99.90
23703;DHT22;12030;50.376;8.762;2022-11-24T02:47:49;6.90;99.90
23703;DHT22;12030;50.376;8.762;2022-11-24T02:50:14;6.90;99.90
23703;DHT22;12030;50.376;8.762;2022-11-24T02:52:40;7.00;99.90
23703;DHT22;12030;50.376;8.762;2022-11-24T02:55:06;7.00;99.90
23703;DHT22;12030;50.376;8.762;2022-11-24T02:57:32;7.00;99.90
23703;DHT22;12030;50.376;8.762;2022-11-24T02:59:57;7.00;99.90
23703;DHT22;12030;50.376;8.762;2022-11-24T03:02:23;7.00;99.90
23703;DHT22;12030;50.376;8.762;2022-11-24T03:04:48;7.00;99.90
23703;DHT22;12030;50.376;8.762;2022-11-24T03:07:14;7.10;99.90
23703;DHT22;12030;50.376;8.762;2022-11-24T03:09:39;7.10;99.90
23703;DHT22;12030;50.376;8.762;2022-11-24T03:12:05;7.10;99.90
23703;DHT22;12030;50.376;8.762;2022-11-24T03:14:31;7.10;99.90
23703;DHT22;12030;50.376;8.762;2022-11-24T03:16:57;7.10;99.90
23703;DHT22;12030;50.376;8.762;2022-11-24T03:19:22;7.10;99.90
23703;DHT22;12030;50.376;8.762;2022-11-24T03:21:48;7.00;99.90
23703;DHT22;12030;50.376;8.762;2022-11-24T03:24:13;7.00;99.90
23703;DHT22;12030;50.376;8.762;2022-11-24T03:26:39;7.00;99.90
23703;DHT22;12030;50.376;8.762;2022-11-24T03:29:06;7.00;99.90
23703;DHT22;12030;50.376;8.762;2022-11-24T03:31:32;7.00;99.90
23703;DHT22;12030;50.376;8.762;2022-11-24T03:33:58;7.00;99.90
23703;DHT22;12030;50.376;8.762;2022-11-24T03:36:24;7.00;99.90
23703;DHT22;12030;50.376;8.762;2022-11-24T03:38:49;7.00;99.90
23703;DHT22;12030;50.376;8.762;2022-11-24T03:41:15;6.90;99.90
23703;DHT22;12030;50.376;8.762;2022-11-24T03:43:40;7.00;99.90
23703;DHT22;12030;50.376;8.762;2022-11-24T03:46:06;6.90;99.90
23703;DHT22;12030;50.376;8.762;2022-11-24T03:48:32;6.80;99.90
23703;DHT22;12030;50.376;8.762;2022-11-24T03:50:58;6.80;99.90
23703;DHT22;12030;50.376;8.762;2022-11-24T03:53:26;6.70;99.90
23703;DHT22;12030;50.376;8.762;2022-11-24T03:55:52;6.70;99.90
23703;DHT22;12030;50.376;8.762;2022-11-24T03:58:18;6.70;99.90
23703;DHT22;12030;50.376;8.762;2022-11-24T04:00:44;6.60;99.90
23703;DHT22;12030;50.376;8.762;2022-11-24T04:03:10;6.60;99.90
23703;DHT22;12030;50.376;8.762;2022-11-24T04:05:36;6.60;99.90
23703;DHT22;12030;50.376;8.762;2022-11-24T04:08:03;6.60;99.90
23703;DHT22;12030;50.376;8.762;2022-11-24T04:10:31;6.60;99.90
23703;DHT22;12030;50.376;8.762;2022-11-24T04:12:57;6.50;99.90
23703;DHT22;12030;50.376;8.762;2022-11-24T04:15:23;6.60;99.90
23703;DHT22;12030;50.376;8.762;2022-11-24T04:17:49;6.50;99.90
23703;DHT22;12030;50.376;8.762;2022-11-24T04:20:15;6.50;99.90
23703;DHT22;12030;50.376;8.762;2022-11-24T04:22:41;6.50;99.90
23703;DHT22;12030;50.376;8.762;2022-11-24T04:25:08;6.60;99.90
23703;DHT22;12030;50.376;8.762;2022-11-24T04:27:35;6.70;99.90
23703;DHT22;12030;50.376;8.762;2022-11-24T04:30:01;6.70;99.90
23703;DHT22;12030;50.376;8.762;2022-11-24T04:32:27;6.70;99.90
23703;DHT22;12030;50.376;8.762;2022-11-24T04:34:53;6.70;99.90
23703;DHT22;12030;50.376;8.762;2022-11-24T04:37:18;6.80;99.90
23703;DHT22;12030;50.376;8.762;2022-11-24T04:39:44;6.70;99.90
23703;DHT22;12030;50.376;8.762;2022-11-24T04:42:10;6.70;99.90
23703;DHT22;12030;50.376;8.762;2022-11-24T04:44:36;6.70;99.90
23703;DHT22;12030;50.376;8.762;2022-11-24T04:47:02;6.70;99.90
23703;DHT22;12030;50.376;8.762;2022-11-24T04:49:27;6.70;99.90
23703;DHT22;12030;50.376;8.762;2022-11-24T04:51:53;6.60;99.90
23703;DHT22;12030;50.376;8.762;2022-11-24T04:54:18;6.60;99.90
23703;DHT22;12030;50.376;8.762;2022-11-24T04:56:44;6.60;99.90
23703;DHT22;12030;50.376;8.762;2022-11-24T04:59:16;6.60;99.90
23703;DHT22;12030;50.376;8.762;2022-11-24T05:01:42;6.50;99.90
23703;DHT22;12030;50.376;8.762;2022-11-24T05:04:09;6.50;99.90
23703;DHT22;12030;50.376;8.762;2022-11-24T05:06:36;6.60;99.90
23703;DHT22;12030;50.376;8.762;2022-11-24T05:09:02;6.50;99.90
23703;DHT22;12030;50.376;8.762;2022-11-24T05:11:27;6.60;99.90
23703;DHT22;12030;50.376;8.762;2022-11-24T05:13:53;6.60;99.90
23703;DHT22;12030;50.376;8.762;2022-11-24T05:16:19;6.70;99.90
23703;DHT22;12030;50.376;8.762;2022-11-24T05:18:44;6.70;99.90
23703;DHT22;12030;50.376;8.762;2022-11-24T05:21:10;6.80;99.90
23703;DHT22;12030;50.376;8.762;2022-11-24T05:23:35;6.80;99.90
23703;DHT22;12030;50.376;8.762;2022-11-24T05:26:02;6.90;99.90
23703;DHT22;12030;50.376;8.762;2022-11-24T05:28:28;6.90;99.90
23703;DHT22;12030;50.376;8.762;2022-11-24T05:30:57;7.00;99.90
23703;DHT22;12030;50.376;8.762;2022-11-24T05:33:22;7.00;99.90
23703;DHT22;12030;50.376;8.762;2022-11-24T05:35:49;7.10;99.90
23703;DHT22;12030;50.376;8.762;2022-11-24T05:38:16;7.10;99.90
23703;DHT22;12030;50.376;8.762;2022-11-24T05:40:41;7.10;99.90
23703;DHT22;12030;50.376;8.762;2022-11-24T05:43:11;7.20;99.90
23703;DHT22;12030;50.376;8.762;2022-11-24T05:45:36;7.30;99.90
23703;DHT22;12030;50.376;8.762;2022-11-24T05:48:07;7.40;99.90
23703;DHT22;12030;50.376;8.762;2022-11-24T05:50:33;7.30;99.90
23703;DHT22;12030;50.376;8.762;2022-11-24T05:53:10;7.30;99.90
23703;DHT22;12030;50.376;8.762;2022-11-24T05:55:37;7.40;99.90
23703;DHT22;12030;50.376;8.762;2022-11-24T05:58:06;7.40;99.90
23703;DHT22;12030;50.376;8.762;2022-11-24T06:00:34;7.50;99.90
23703;DHT22;12030;50.376;8.762;2022-11-24T06:03:00;7.50;99.90
23703;DHT22;12030;50.376;8.762;2022-11-24T06:05:26;7.50;99.90
23703;DHT22;12030;50.376;8.762;2022-11-24T06:07:53;7.60;99.90
23703;DHT22;12030;50.376;8.762;2022-11-24T06:10:19;7.60;99.90
23703;DHT22;12030;50.376;8.762;2022-11-24T06:12:45;7.70;99.90
23703;DHT22;12030;50.376;8.762;2022-11-24T06:15:11;7.70;99.90
23703;DHT22;12030;50.376;8.762;2022-11-24T06:17:37;7.70;99.90
23703;DHT22;12030;50.376;8.762;2022-11-24T06:20:04;7.70;99.90
23703;DHT22;12030;50.376;8.762;2022-11-24T06:22:30;7.80;99.90
23703;DHT22;12030;50.376;8.762;2022-11-24T06:24:56;7.90;99.90
23703;DHT22;12030;50.376;8.762;2022-11-24T06:27:22;8.00;99.90
23703;DHT22;12030;50.376;8.762;2022-11-24T06:29:47;8.10;99.90
23703;DHT22;12030;50.376;8.762;2022-11-24T06:32:13;8.10;99.90
23703;DHT22;12030;50.376;8.762;2022-11-24T06:34:39;8.10;99.90
23703;DHT22;12030;50.376;8.762;2022-11-24T06:37:05;8.20;99.90
23703;DHT22;12030;50.376;8.762;2022-11-24T06:39:31;8.20;99.90
23703;DHT22;12030;50.376;8.762;2022-11-24T06:41:57;8.20;99.90
23703;DHT22;12030;50.376;8.762;2022-11-24T06:44:23;8.20;99.90
23703;DHT22;12030;50.376;8.762;2022-11-24T06:46:48;8.20;99.90
23703;DHT22;12030;50.376;8.762;2022-11-24T06:49:14;8.20;99.90
23703;DHT22;12030;50.376;8.762;2022-11-24T06:51:40;8.20;99.90
23703;DHT22;12030;50.376;8.762;2022-11-24T06:54:07;8.20;99.90
23703;DHT22;12030;50.376;8.762;2022-11-24T06:56:33;8.20;99.90
23703;DHT22;12030;50.376;8.762;2022-11-24T06:58:58;8.20;99.90
23703;DHT22;12030;50.376;8.762;2022-11-24T07:01:26;8.10;99.90
23703;DHT22;12030;50.376;8.762;2022-11-24T07:03:53;8.20;99.90
23703;DHT22;12030;50.376;8.762;2022-11-24T07:06:19;8.10;99.90
23703;DHT22;12030;50.376;8.762;2022-11-24T07:08:45;8.20;99.90
23703;DHT22;12030;50.376;8.762;2022-11-24T07:11:13;8.10;99.90
23703;DHT22;12030;50.376;8.762;2022-11-24T07:13:41;8.20;99.90
23703;DHT22;12030;50.376;8.762;2022-11-24T07:16:14;8.10;99.90
23703;DHT22;12030;50.376;8.762;2022-11-24T07:18:41;8.20;99.90
23703;DHT22;12030;50.376;8.762;2022-11-24T07:21:07;8.20;99.90
23703;DHT22;12030;50.376;8.762;2022-11-24T07:23:32;8.20;99.90
23703;DHT22;12030;50.376;8.762;2022-11-24T07:26:00;8.30;99.90
23703;DHT22;12030;50.376;8.762;2022-11-24T07:28:25;8.30;99.90
23703;DHT22;12030;50.376;8.762;2022-11-24T07:30:51;8.30;99.90
23703;DHT22;12030;50.376;8.762;2022-11-24T07:33:16;8.30;99.90
23703;DHT22;12030;50.376;8.762;2022-11-24T07:35:45;8.30;99.90
23703;DHT22;12030;50.376;8.762;2022-11-24T07:38:11;8.40;99.90
23703;DHT22;12030;50.376;8.762;2022-11-24T07:40:36;8.40;99.90
23703;DHT22;12030;50.376;8.762;2022-11-24T07:43:02;8.40;99.90
23703;DHT22;12030;50.376;8.762;2022-11-24T07:45:27;8.40;99.90
23703;DHT22;12030;50.376;8.762;2022-11-24T07:47:53;8.40;99.90
23703;DHT22;12030;50.376;8.762;2022-11-24T07:50:18;8.40;99.90
23703;DHT22;12030;50.376;8.762;2022-11-24T07:52:44;8.40;99.90
23703;DHT22;12030;50.376;8.762;2022-11-24T07:55:09;8.50;99.90
23703;DHT22;12030;50.376;8.762;2022-11-24T07:57:35;8.50;99.90
23703;DHT22;12030;50.376;8.762;2022-11-24T08:00:02;8.50;99.90
23703;DHT22;12030;50.376;8.762;2022-11-24T08:02:29;8.50;99.90
23703;DHT22;12030;50.376;8.762;2022-11-24T08:04:54;8.60;99.90
23703;DHT22;12030;50.376;8.762;2022-11-24T08:07:20;8.60;99.90
23703;DHT22;12030;50.376;8.762;2022-11-24T08:09:45;8.60;99.90
23703;DHT22;12030;50.376;8.762;2022-11-24T08:12:11;8.60;99.90
23703;DHT22;12030;50.376;8.762;2022-11-24T08:14:36;8.70;99.90
23703;DHT22;12030;50.376;8.762;2022-11-24T08:17:02;8.70;99.90
23703;DHT22;12030;50.376;8.762;2022-11-24T08:19:27;8.70;99.90
23703;DHT22;12030;50.376;8.762;2022-11-24T08:21:53;8.70;99.90
23703;DHT22;12030;50.376;8.762;2022-11-24T08:24:18;8.80;99.90
23703;DHT22;12030;50.376;8.762;2022-11-24T08:26:44;8.80;99.90
23703;DHT22;12030;50.376;8.762;2022-11-24T08:29:09;8.70;99.90
23703;DHT22;12030;50.376;8.762;2022-11-24T08:31:37;8.80;99.90
23703;DHT22;12030;50.376;8.762;2022-11-24T08:34:03;8.80;99.90
23703;DHT22;12030;50.376;8.762;2022-11-24T08:36:29;8.80;99.90
23703;DHT22;12030;50.376;8.762;2022-11-24T08:38:56;8.80;99.90
23703;DHT22;12030;50.376;8.762;2022-11-24T08:41:22;8.80;99.90
23703;DHT22;12030;50.376;8.762;2022-11-24T08:43:48;8.90;99.90
23703;DHT22;12030;50.376;8.762;2022-11-24T08:46:15;8.90;99.90
23703;DHT22;12030;50.376;8.762;2022-11-24T08:48:42;8.90;99.90
23703;DHT22;12030;50.376;8.762;2022-11-24T08:51:19;8.90;99.90
23703;DHT22;12030;50.376;8.762;2022-11-24T08:53:45;8.90;99.90
23703;DHT22;12030;50.376;8.762;2022-11-24T08:56:11;8.90;99.90
23703;DHT22;12030;50.376;8.762;2022-11-24T08:58:37;8.90;99.90
23703;DHT22;12030;50.376;8.762;2022-11-24T09:01:12;9.00;99.90
23703;DHT22;12030;50.376;8.762;2022-11-24T09:03:38;9.10;99.90
23703;DHT22;12030;50.376;8.762;2022-11-24T09:06:05;9.20;99.90
23703;DHT22;12030;50.376;8.762;2022-11-24T09:08:31;9.30;99.90
23703;DHT22;12030;50.376;8.762;2022-11-24T09:11:05;9.30;99.90
23703;DHT22;12030;50.376;8.762;2022-11-24T09:13:31;9.40;99.90
23703;DHT22;12030;50.376;8.762;2022-11-24T09:16:18;9.40;99.90
23703;DHT22;12030;50.376;8.762;2022-11-24T09:18:44;9.50;99.90
23703;DHT22;12030;50.376;8.762;2022-11-24T09:21:14;9.70;99.90
23703;DHT22;12030;50.376;8.762;2022-11-24T09:23:40;9.80;99.90
23703;DHT22;12030;50.376;8.762;2022-11-24T09:26:08;9.80;99.90
23703;DHT22;12030;50.376;8.762;2022-11-24T09:28:34;9.90;99.90
23703;DHT22;12030;50.376;8.762;2022-11-24T09:31:01;9.90;99.90
23703;DHT22;12030;50.376;8.762;2022-11-24T09:33:27;9.80;99.90
23703;DHT22;12030;50.376;8.762;2022-11-24T09:35:53;10.00;99.90
23703;DHT22;12030;50.376;8.762;2022-11-24T09:38:19;10.10;99.90
23703;DHT22;12030;50.376;8.762;2022-11-24T09:40:44;10.10;99.90
23703;DHT22;12030;50.376;8.762;2022-11-24T09:43:19;10.20;99.90
23703;DHT22;12030;50.376;8.762;2022-11-24T09:46:19;10.20;99.90
23703;DHT22;12030;50.376;8.762;2022-11-24T09:48:49;10.20;99.90
23703;DHT22;12030;50.376;8.762;2022-11-24T09:51:18;10.30;99.90
23703;DHT22;12030;50.376;8.762;2022-11-24T09:53:53;10.30;99.90
23703;DHT22;12030;50.376;8.762;2022-11-24T09:56:27;10.30;99.90
23703;DHT22;12030;50.376;8.762;2022-11-24T09:59:00;10.30;99.90
23703;DHT22;12030;50.376;8.762;2022-11-24T10:01:32;10.40;99.90
23703;DHT22;12030;50.376;8.762;2022-11-24T10:04:00;10.50;99.90
23703;DHT22;12030;50.376;8.762;2022-11-24T10:06:30;10.50;99.90
23703;DHT22;12030;50.376;8.762;2022-11-24T10:09:55;10.50;99.90
23703;DHT22;12030;50.376;8.762;2022-11-24T10:15:36;10.40;99.90
23703;DHT22;12030;50.376;8.762;2022-11-24T10:26:39;10.40;99.90
23703;DHT22;12030;50.376;8.762;2022-11-24T10:29:25;10.50;99.90
23703;DHT22;12030;50.376;8.762;2022-11-24T10:31:54;10.50;99.90
23703;DHT22;12030;50.376;8.762;2022-11-24T10:34:34;10.50;99.90
23703;DHT22;12030;50.376;8.762;2022-11-24T10:37:13;10.50;99.90
23703;DHT22;12030;50.376;8.762;2022-11-24T10:44:45;10.50;99.90
23703;DHT22;12030;50.376;8.762;2022-11-24T10:47:19;10.50;99.90
23703;DHT22;12030;50.376;8.762;2022-11-24T10:50:00;10.60;99.90
23703;DHT22;12030;50.376;8.762;2022-11-24T10:52:33;10.60;99.90
23703;DHT22;12030;50.376;8.762;2022-11-24T10:55:03;10.70;99.90
23703;DHT22;12030;50.376;8.762;2022-11-24T10:57:34;10.60;99.90
23703;DHT22;12030;50.376;8.762;2022-11-24T11:00:13;10.70;99.90
23703;DHT22;12030;50.376;8.762;2022-11-24T11:02:50;10.60;99.90
23703;DHT22;12030;50.376;8.762;2022-11-24T11:05:43;10.70;99.90
23703;DHT22;12030;50.376;8.762;2022-11-24T11:08:28;10.80;99.90
23703;DHT22;12030;50.376;8.762;2022-11-24T11:11:17;10.80;99.90
23703;DHT22;12030;50.376;8.762;2022-11-24T11:13:56;10.90;99.90
23703;DHT22;12030;50.376;8.762;2022-11-24T11:18:49;10.80;99.90
23703;DHT22;12030;50.376;8.762;2022-11-24T11:21:37;10.80;99.90
23703;DHT22;12030;50.376;8.762;2022-11-24T11:24:14;10.80;99.90
23703;DHT22;12030;50.376;8.762;2022-11-24T11:26:41;10.80;99.90
23703;DHT22;12030;50.376;8.762;2022-11-24T11:31:34;10.90;99.90
23703;DHT22;12030;50.376;8.762;2022-11-24T11:36:40;11.10;99.90
23703;DHT22;12030;50.376;8.762;2022-11-24T11:41:48;11.10;99.90
23703;DHT22;12030;50.376;8.762;2022-11-24T11:44:41;11.20;99.90
23703;DHT22;12030;50.376;8.762;2022-11-24T11:47:16;11.20;99.90
23703;DHT22;12030;50.376;8.762;2022-11-24T11:49:43;11.20;99.90
23703;DHT22;12030;50.376;8.762;2022-11-24T12:01:33;11.40;99.90
23703;DHT22;12030;50.376;8.762;2022-11-24T12:04:33;11.30;99.90
23703;DHT22;12030;50.376;8.762;2022-11-24T12:13:32;11.30;99.90
23703;DHT22;12030;50.376;8.762;2022-11-24T12:19:29;11.30;99.90
23703;DHT22;12030;50.376;8.762;2022-11-24T12:24:56;11.40;99.90
23703;DHT22;12030;50.376;8.762;2022-11-24T12:30:14;11.40;99.90
23703;DHT22;12030;50.376;8.762;2022-11-24T12:35:35;11.40;99.90
23703;DHT22;12030;50.376;8.762;2022-11-24T12:43:51;11.50;99.90
23703;DHT22;12030;50.376;8.762;2022-11-24T12:46:54;11.50;99.90
23703;DHT22;12030;50.376;8.762;2022-11-24T12:52:23;11.50;99.90
23703;DHT22;12030;50.376;8.762;2022-11-24T12:54:50;11.40;99.90
23703;DHT22;12030;50.376;8.762;2022-11-24T12:57:52;11.40;99.90
23703;DHT22;12030;50.376;8.762;2022-11-24T13:00:29;11.30;99.90
23703;DHT22;12030;50.376;8.762;2022-11-24T13:03:19;11.30;99.90
23703;DHT22;12030;50.376;8.762;2022-11-24T13:06:15;11.30;99.90
23703;DHT22;12030;50.376;8.762;2022-11-24T13:08:41;11.40;99.90
23703;DHT22;12030;50.376;8.762;2022-11-24T13:11:37;11.40;99.90
23703;DHT22;12030;50.376;8.762;2022-11-24T13:14:31;11.40;99.90
23703;DHT22;12030;50.376;8.762;2022-11-24T13:17:00;11.40;99.90
23703;DHT22;12030;50.376;8.762;2022-11-24T13:19:34;11.40;99.90
23703;DHT22;12030;50.376;8.762;2022-11-24T13:22:01;11.40;99.90
23703;DHT22;12030;50.376;8.762;2022-11-24T13:24:38;11.40;99.90
23703;DHT22;12030;50.376;8.762;2022-11-24T13:29:51;11.30;99.90
23703;DHT22;12030;50.376;8.762;2022-11-24T13:53:43;11.30;99.90
23703;DHT22;12030;50.376;8.762;2022-11-24T13:58:40;11.20;99.90
23703;DHT22;12030;50.376;8.762;2022-11-24T14:09:41;10.90;99.90
23703;DHT22;12030;50.376;8.762;2022-11-24T14:12:22;10.90;99.90
23703;DHT22;12030;50.376;8.762;2022-11-24T14:14:52;10.90;99.90
23703;DHT22;12030;50.376;8.762;2022-11-24T14:17:28;10.80;99.90
23703;DHT22;12030;50.376;8.762;2022-11-24T14:19:55;10.90;99.90
23703;DHT22;12030;50.376;8.762;2022-11-24T14:22:34;10.80;99.90
23703;DHT22;12030;50.376;8.762;2022-11-24T14:25:02;10.70;99.90
23703;DHT22;12030;50.376;8.762;2022-11-24T14:27:33;10.70;99.90
23703;DHT22;12030;50.376;8.762;2022-11-24T14:30:04;10.60;99.90
23703;DHT22;12030;50.376;8.762;2022-11-24T14:35:26;10.50;99.90
23703;DHT22;12030;50.376;8.762;2022-11-24T14:37:53;10.50;99.90
23703;DHT22;12030;50.376;8.762;2022-11-24T14:40:42;10.40;99.90
23703;DHT22;12030;50.376;8.762;2022-11-24T14:43:28;10.40;99.90
23703;DHT22;12030;50.376;8.762;2022-11-24T14:45:55;10.30;99.90
23703;DHT22;12030;50.376;8.762;2022-11-24T14:48:26;10.20;99.90
23703;DHT22;12030;50.376;8.762;2022-11-24T14:51:03;10.10;99.90
23703;DHT22;12030;50.376;8.762;2022-11-24T14:53:29;10.00;99.90
23703;DHT22;12030;50.376;8.762;2022-11-24T14:58:34;9.90;99.90
23703;DHT22;12030;50.376;8.762;2022-11-24T15:03:42;9.90;99.90
23703;DHT22;12030;50.376;8.762;2022-11-24T15:06:17;9.90;99.90
23703;DHT22;12030;50.376;8.762;2022-11-24T15:08:46;9.80;99.90
23703;DHT22;12030;50.376;8.762;2022-11-24T15:11:13;9.70;99.90
23703;DHT22;12030;50.376;8.762;2022-11-24T15:13:39;9.70;99.90
23703;DHT22;12030;50.376;8.762;2022-11-24T15:16:15;9.60;99.90
23703;DHT22;12030;50.376;8.762;2022-11-24T15:18:53;9.50;99.90
23703;DHT22;12030;50.376;8.762;2022-11-24T15:21:31;9.40;99.90
23703;DHT22;12030;50.376;8.762;2022-11-24T15:24:18;9.30;99.90
23703;DHT22;12030;50.376;8.762;2022-11-24T15:26:44;9.20;99.90
23703;DHT22;12030;50.376;8.762;2022-11-24T15:29:11;9.00;99.90
23703;DHT22;12030;50.376;8.762;2022-11-24T15:31:40;8.90;99.90
23703;DHT22;12030;50.376;8.762;2022-11-24T15:34:08;8.70;99.90
23703;DHT22;12030;50.376;8.762;2022-11-24T15:36:36;8.50;99.90
23703;DHT22;12030;50.376;8.762;2022-11-24T15:39:01;8.40;99.90
23703;DHT22;12030;50.376;8.762;2022-11-24T15:41:30;8.30;99.90
23703;DHT22;12030;50.376;8.762;2022-11-24T15:43:56;8.20;99.90
23703;DHT22;12030;50.376;8.762;2022-11-24T15:46:28;8.10;99.90
23703;DHT22;12030;50.376;8.762;2022-11-24T15:48:55;8.00;99.90
23703;DHT22;12030;50.376;8.762;2022-11-24T15:51:21;8.00;99.90
23703;DHT22;12030;50.376;8.762;2022-11-24T15:53:50;7.90;99.90
23703;DHT22;12030;50.376;8.762;2022-11-24T15:56:24;7.70;99.90
23703;DHT22;12030;50.376;8.762;2022-11-24T15:58:51;7.60;99.90
23703;DHT22;12030;50.376;8.762;2022-11-24T16:01:19;7.60;99.90
23703;DHT22;12030;50.376;8.762;2022-11-24T16:03:45;7.60;99.90
23703;DHT22;12030;50.376;8.762;2022-11-24T16:06:16;7.50;99.90
23703;DHT22;12030;50.376;8.762;2022-11-24T16:08:42;7.40;99.90
23703;DHT22;12030;50.376;8.762;2022-11-24T16:11:07;7.30;99.90
23703;DHT22;12030;50.376;8.762;2022-11-24T16:13:33;7.20;99.90
23703;DHT22;12030;50.376;8.762;2022-11-24T16:15:59;7.20;99.90
23703;DHT22;12030;50.376;8.762;2022-11-24T16:18:24;7.10;99.90
23703;DHT22;12030;50.376;8.762;2022-11-24T16:20:50;6.90;99.90
23703;DHT22;12030;50.376;8.762;2022-11-24T16:23:15;6.90;99.90
23703;DHT22;12030;50.376;8.762;2022-11-24T16:25:41;6.90;99.90
23703;DHT22;12030;50.376;8.762;2022-11-24T16:28:06;6.90;99.90
23703;DHT22;12030;50.376;8.762;2022-11-24T16:30:32;6.80;99.90
23703;DHT22;12030;50.376;8.762;2022-11-24T16:32:57;6.80;99.90
23703;DHT22;12030;50.376;8.762;2022-11-24T16:35:23;6.70;99.90
23703;DHT22;12030;50.376;8.762;2022-11-24T16:37:48;6.70;99.90
23703;DHT22;12030;50.376;8.762;2022-11-24T16:40:14;6.70;99.90
23703;DHT22;12030;50.376;8.762;2022-11-24T16:42:40;6.60;99.90
23703;DHT22;12030;50.376;8.762;2022-11-24T16:45:06;6.50;99.90
23703;DHT22;12030;50.376;8.762;2022-11-24T16:47:31;6.50;99.90
23703;DHT22;12030;50.376;8.762;2022-11-24T16:50:02;6.50;99.90
23703;DHT22;12030;50.376;8.762;2022-11-24T16:52:28;6.40;99.90
23703;DHT22;12030;50.376;8.762;2022-11-24T16:54:53;6.40;99.90
23703;DHT22;12030;50.376;8.762;2022-11-24T16:57:19;6.20;99.90
23703;DHT22;12030;50.376;8.762;2022-11-24T16:59:46;6.20;99.90
23703;DHT22;12030;50.376;8.762;2022-11-24T17:02:12;6.20;99.90
23703;DHT22;12030;50.376;8.762;2022-11-24T17:04:37;6.20;99.90
23703;DHT22;12030;50.376;8.762;2022-11-24T17:07:03;6.10;99.90
23703;DHT22;12030;50.376;8.762;2022-11-24T17:09:28;6.10;99.90
23703;DHT22;12030;50.376;8.762;2022-11-24T17:11:54;6.10;99.90
23703;DHT22;12030;50.376;8.762;2022-11-24T17:14:20;6.10;99.90
23703;DHT22;12030;50.376;8.762;2022-11-24T17:16:45;6.00;99.90
23703;DHT22;12030;50.376;8.762;2022-11-24T17:19:11;5.80;99.90
23703;DHT22;12030;50.376;8.762;2022-11-24T17:21:37;5.70;99.90
23703;DHT22;12030;50.376;8.762;2022-11-24T17:24:03;5.60;99.90
23703;DHT22;12030;50.376;8.762;2022-11-24T17:26:30;5.30;99.90
23703;DHT22;12030;50.376;8.762;2022-11-24T17:28:56;5.30;99.90
23703;DHT22;12030;50.376;8.762;2022-11-24T17:31:22;5.30;99.90
23703;DHT22;12030;50.376;8.762;2022-11-24T17:33:53;5.00;99.90
23703;DHT22;12030;50.376;8.762;2022-11-24T17:36:19;5.00;99.90
23703;DHT22;12030;50.376;8.762;2022-11-24T17:38:45;5.00;99.90
23703;DHT22;12030;50.376;8.762;2022-11-24T17:41:10;4.90;99.90